createdAt,value
2022-08-31T00:02:16.720Z,100.00
2022-08-31T00:07:25.240Z,100.00
2022-08-31T00:12:33.936Z,100.00
2022-08-31T00:17:41.133Z,100.00
2022-08-31T00:22:49.665Z,100.00
2022-08-31T00:27:55.778Z,100.00
2022-08-31T00:33:00.815Z,100.00
2022-08-31T00:38:08.944Z,100.00
2022-08-31T00:43:14.799Z,100.00
2022-08-31T00:48:19.423Z,100.00
2022-08-31T00:53:27.285Z,100.00
2022-08-31T00:58:32.104Z,100.00
2022-08-31T01:03:36.770Z,100.00
2022-08-31T01:08:44.798Z,100.00
2022-08-31T01:13:50.200Z,100.00
2022-08-31T01:18:58.993Z,100.00
2022-08-31T01:24:08.370Z,100.00
2022-08-31T01:29:12.996Z,100.00
2022-08-31T01:34:22.007Z,100.00
2022-08-31T01:39:30.161Z,100.00
2022-08-31T01:44:35.411Z,100.00
2022-08-31T01:49:47.165Z,100.00
2022-08-31T01:54:54.457Z,100.00
2022-08-31T02:00:02.341Z,100.00
2022-08-31T02:05:28.320Z,100.00
2022-08-31T02:10:36.500Z,100.00
2022-08-31T02:15:41.613Z,100.00
2022-08-31T02:20:46.823Z,100.00
2022-08-31T02:25:55.749Z,100.00
2022-08-31T02:31:00.467Z,100.00
2022-08-31T02:36:06.334Z,100.00
2022-08-31T02:41:13.660Z,100.00
2022-08-31T02:46:20.676Z,100.00
2022-08-31T02:51:35.565Z,100.00
2022-08-31T02:56:44.096Z,100.00
2022-08-31T03:01:48.913Z,100.00
2022-08-31T03:06:55.130Z,100.00
2022-08-31T03:12:02.696Z,100.00
2022-08-31T03:17:08.111Z,100.00
2022-08-31T03:22:15.057Z,100.00
2022-08-31T03:27:22.813Z,100.00
2022-08-31T03:32:27.648Z,100.00
2022-08-31T03:37:33.496Z,100.00
2022-08-31T03:42:42.848Z,100.00
2022-08-31T03:47:51.041Z,100.00
2022-08-31T03:52:56.539Z,100.00
2022-08-31T03:58:05.103Z,100.00
2022-08-31T04:03:14.311Z,100.00
2022-08-31T04:08:38.135Z,100.00
2022-08-31T04:14:15.690Z,100.00
2022-08-31T04:19:41.673Z,100.00
2022-08-31T04:25:10.562Z,100.00
2022-08-31T04:30:50.856Z,100.00
2022-08-31T04:35:56.035Z,100.00
2022-08-31T04:41:01.053Z,100.00
2022-08-31T04:46:11.309Z,100.00
2022-08-31T04:51:19.224Z,100.00
2022-08-31T04:56:26.849Z,100.00
2022-08-31T05:01:43.239Z,100.00
2022-08-31T05:06:54.730Z,100.00
2022-08-31T05:12:00.022Z,100.00
2022-08-31T05:17:14.963Z,100.00
2022-08-31T05:22:20.368Z,100.00
2022-08-31T05:27:26.912Z,100.00
2022-08-31T05:32:34.221Z,100.00
2022-08-31T05:37:43.103Z,100.00
2022-08-31T05:42:48.129Z,100.00
2022-08-31T05:47:55.691Z,100.00
2022-08-31T05:53:00.634Z,100.00
2022-08-31T05:58:05.419Z,100.00
2022-08-31T06:03:12.650Z,100.00
2022-08-31T06:08:37.385Z,100.00
2022-08-31T06:14:09.811Z,100.00
2022-08-31T06:19:17.981Z,100.00
2022-08-31T06:24:25.587Z,100.00
2022-08-31T06:29:32.423Z,100.00
2022-08-31T06:34:42.520Z,100.00
2022-08-31T06:40:06.984Z,100.00
2022-08-31T06:45:30.454Z,100.00
2022-08-31T06:51:01.421Z,100.00
2022-08-31T06:56:16.430Z,100.00
2022-08-31T07:01:48.825Z,100.00
2022-08-31T07:07:13.021Z,100.00
2022-08-31T07:12:19.129Z,100.00
2022-08-31T07:17:27.239Z,100.00
2022-08-31T07:22:34.598Z,100.00
2022-08-31T07:27:59.471Z,100.00
2022-08-31T07:33:07.216Z,100.00
2022-08-31T07:38:30.948Z,100.00
2022-08-31T07:43:35.752Z,100.00
2022-08-31T07:48:41.949Z,100.00
2022-08-31T07:54:08.640Z,100.00
2022-08-31T07:59:42.970Z,100.00
2022-08-31T08:04:54.296Z,100.00
2022-08-31T08:10:37.743Z,100.00
2022-08-31T08:16:03.301Z,100.00
2022-08-31T08:21:29.323Z,100.00
2022-08-31T08:26:36.751Z,100.00
2022-08-31T08:31:42.809Z,100.00
2022-08-31T08:36:47.562Z,100.00
2022-08-31T08:41:58.842Z,100.00
2022-08-31T08:47:06.200Z,100.00
2022-08-31T08:52:27.899Z,100.00
2022-08-31T08:57:39.090Z,100.00
2022-08-31T09:02:58.430Z,100.00
2022-08-31T09:08:42.675Z,100.00
2022-08-31T09:14:06.777Z,100.00
2022-08-31T09:19:17.291Z,100.00
2022-08-31T09:24:27.173Z,100.00
2022-08-31T09:30:01.516Z,100.00
2022-08-31T09:35:09.421Z,100.00
2022-08-31T09:40:23.605Z,100.00
2022-08-31T09:45:38.701Z,100.00
2022-08-31T09:50:48.879Z,100.00
2022-08-31T09:56:13.336Z,100.00
2022-08-31T10:01:28.344Z,100.00
2022-08-31T10:06:46.664Z,100.00
2022-08-31T10:11:57.804Z,100.00
2022-08-31T10:17:12.975Z,100.00
2022-08-31T10:22:28.286Z,100.00
2022-08-31T10:27:41.151Z,100.00
2022-08-31T10:32:56.047Z,100.00
2022-08-31T10:38:10.356Z,100.00
2022-08-31T10:43:19.460Z,100.00
2022-08-31T10:48:28.903Z,100.00
2022-08-31T10:53:51.029Z,100.00
2022-08-31T10:59:11.003Z,100.00
2022-08-31T11:04:37.500Z,100.00
2022-08-31T11:09:50.437Z,100.00
2022-08-31T11:15:22.586Z,100.00
2022-08-31T11:20:48.142Z,100.00
2022-08-31T11:26:20.646Z,100.00
2022-08-31T11:31:32.028Z,100.00
2022-08-31T11:36:55.239Z,100.00
2022-08-31T11:42:00.606Z,100.00
2022-08-31T11:47:08.216Z,100.00
2022-08-31T11:52:34.699Z,100.00
2022-08-31T11:58:21.348Z,100.00
2022-08-31T12:03:46.279Z,100.00
2022-08-31T12:08:55.319Z,100.00
2022-08-31T12:14:06.016Z,100.00
2022-08-31T12:19:48.157Z,100.00
2022-08-31T12:25:11.816Z,100.00
2022-08-31T12:30:21.621Z,100.00
2022-08-31T12:35:28.947Z,100.00
2022-08-31T12:40:38.709Z,100.00
2022-08-31T12:46:17.109Z,100.00
2022-08-31T12:51:38.513Z,100.00
2022-08-31T12:56:56.789Z,100.00
2022-08-31T13:02:06.173Z,100.00
2022-08-31T13:07:37.040Z,100.00
2022-08-31T13:12:52.667Z,100.00
2022-08-31T13:18:05.253Z,100.00
2022-08-31T13:23:11.552Z,100.00
2022-08-31T13:28:30.568Z,100.00
2022-08-31T13:33:40.311Z,100.00
2022-08-31T13:38:51.766Z,100.00
2022-08-31T13:44:03.670Z,100.00
2022-08-31T13:49:11.660Z,100.00
2022-08-31T13:54:30.686Z,97.34
2022-08-31T13:59:41.015Z,94.50
2022-08-31T14:05:00.447Z,100.00
2022-08-31T14:10:09.319Z,100.00
2022-08-31T14:15:36.502Z,84.25
2022-08-31T14:21:09.948Z,85.72
2022-08-31T14:26:15.774Z,82.87
2022-08-31T14:31:29.218Z,85.37
2022-08-31T14:36:51.205Z,94.54
2022-08-31T14:41:57.804Z,99.24
2022-08-31T14:47:07.009Z,94.10
2022-08-31T14:52:13.082Z,88.62
2022-08-31T14:57:25.282Z,93.84
2022-08-31T15:02:35.588Z,95.86
2022-08-31T15:07:44.613Z,100.00
2022-08-31T15:12:50.578Z,94.49
2022-08-31T15:17:57.937Z,100.00
2022-08-31T15:23:03.321Z,100.00
2022-08-31T15:28:08.789Z,100.00
2022-08-31T15:33:16.035Z,100.00
2022-08-31T15:38:20.920Z,100.00
2022-08-31T15:43:25.713Z,100.00
2022-08-31T15:48:45.446Z,100.00
2022-08-31T15:54:11.671Z,100.00
2022-08-31T15:59:16.845Z,100.00
2022-08-31T16:04:26.083Z,100.00
2022-08-31T16:09:30.794Z,100.00
2022-08-31T16:14:38.491Z,100.00
2022-08-31T16:19:45.712Z,100.00
2022-08-31T16:24:52.661Z,100.00
2022-08-31T16:29:58.368Z,100.00
2022-08-31T16:35:06.559Z,100.00
2022-08-31T16:40:13.954Z,100.00
2022-08-31T16:45:21.093Z,100.00
2022-08-31T16:50:28.298Z,100.00
2022-08-31T16:55:34.733Z,100.00
2022-08-31T17:00:40.255Z,100.00
2022-08-31T17:05:49.428Z,100.00
2022-08-31T17:10:54.412Z,100.00
2022-08-31T17:15:59.079Z,100.00
2022-08-31T17:21:06.539Z,100.00
2022-08-31T17:26:12.678Z,100.00
2022-08-31T17:31:17.347Z,100.00
2022-08-31T17:36:25.499Z,100.00
2022-08-31T17:41:30.687Z,100.00
2022-08-31T17:46:35.619Z,100.00
2022-08-31T17:51:43.456Z,100.00
2022-08-31T17:56:53.897Z,100.00
2022-08-31T18:02:00.926Z,100.00
2022-08-31T18:07:09.503Z,100.00
2022-08-31T18:12:14.729Z,100.00
2022-08-31T18:17:21.668Z,100.00
2022-08-31T18:22:29.234Z,100.00
2022-08-31T18:27:34.096Z,100.00
2022-08-31T18:32:38.930Z,100.00
2022-08-31T18:37:55.030Z,100.00
2022-08-31T18:43:12.278Z,100.00
2022-08-31T18:48:25.711Z,100.00
2022-08-31T18:53:37.833Z,100.00
2022-08-31T18:58:43.583Z,100.00
2022-08-31T19:03:48.525Z,100.00
2022-08-31T19:08:56.884Z,100.00
2022-08-31T19:14:03.268Z,100.00
2022-08-31T19:19:08.206Z,100.00
2022-08-31T19:24:18.708Z,100.00
2022-08-31T19:29:27.121Z,100.00
2022-08-31T19:34:34.507Z,100.00
2022-08-31T19:39:45.692Z,100.00
2022-08-31T19:44:54.987Z,100.00
2022-08-31T19:50:18.054Z,100.00
2022-08-31T19:55:25.322Z,100.00
2022-08-31T20:00:30.782Z,100.00
2022-08-31T20:05:40.119Z,100.00
2022-08-31T20:10:49.284Z,100.00
2022-08-31T20:15:54.749Z,100.00
2022-08-31T20:21:01.458Z,100.00
2022-08-31T20:26:11.897Z,100.00
2022-08-31T20:31:17.167Z,100.00
2022-08-31T20:36:26.588Z,100.00
2022-08-31T20:41:35.203Z,100.00
2022-08-31T20:46:57.069Z,100.00
2022-08-31T20:52:02.824Z,100.00
2022-08-31T20:57:12.068Z,100.00
2022-08-31T21:02:17.575Z,100.00
2022-08-31T21:07:23.303Z,100.00
2022-08-31T21:12:31.211Z,100.00
2022-08-31T21:17:36.126Z,100.00
2022-08-31T21:22:40.952Z,100.00
2022-08-31T21:27:48.163Z,100.00
2022-08-31T21:32:53.937Z,100.00
2022-08-31T21:37:59.063Z,100.00
2022-08-31T21:43:07.140Z,100.00
2022-08-31T21:48:11.799Z,100.00
2022-08-31T21:53:16.494Z,100.00
2022-08-31T21:58:24.000Z,100.00
2022-08-31T22:03:36.801Z,100.00
2022-08-31T22:08:42.700Z,100.00
2022-08-31T22:13:51.990Z,100.00
2022-08-31T22:19:01.389Z,100.00
2022-08-31T22:24:10.287Z,100.00
2022-08-31T22:29:23.829Z,100.00
2022-08-31T22:34:29.419Z,100.00
2022-08-31T22:39:35.046Z,100.00
2022-08-31T22:44:44.020Z,100.00
2022-08-31T22:49:48.704Z,100.00
2022-08-31T22:54:53.892Z,100.00
2022-08-31T23:00:01.152Z,100.00
2022-08-31T23:05:05.752Z,100.00
2022-08-31T23:10:13.970Z,100.00
2022-08-31T23:15:22.766Z,100.00
2022-08-31T23:20:27.908Z,100.00
2022-08-31T23:25:32.719Z,100.00
2022-08-31T23:30:43.977Z,100.00
2022-08-31T23:35:50.048Z,100.00
2022-08-31T23:40:56.359Z,100.00
2022-08-31T23:46:05.598Z,100.00
2022-08-31T23:51:11.758Z,100.00
2022-08-31T23:56:18.206Z,100.00
